File backup.txt content, last update Tuesday January 26 2021, 23:19:17


1611668406 Temp=12.67*C Humidity=51.56% Pressure=101641.98Pa
1611668467 Temp=12.69*C Humidity=51.54% Pressure=101642.16Pa
1611668526 Temp=12.72*C Humidity=51.52% Pressure=101644.16Pa
1611668586 Temp=12.74*C Humidity=51.48% Pressure=101645.77Pa
1611668647 Temp=12.73*C Humidity=51.42% Pressure=101637.51Pa
1611668706 Temp=12.74*C Humidity=51.36% Pressure=101628.74Pa
1611668766 Temp=12.74*C Humidity=51.31% Pressure=101621.50Pa
1611668826 Temp=12.73*C Humidity=51.17% Pressure=101618.68Pa
1611668886 Temp=12.75*C Humidity=51.16% Pressure=101616.93Pa
1611668946 Temp=12.77*C Humidity=51.14% Pressure=101623.75Pa
1611669006 Temp=12.77*C Humidity=51.15% Pressure=101625.02Pa
1611669066 Temp=12.77*C Humidity=51.15% Pressure=101633.85Pa
1611669126 Temp=12.78*C Humidity=51.18% Pressure=101638.33Pa
1611669186 Temp=12.79*C Humidity=51.23% Pressure=101636.15Pa
1611669246 Temp=12.80*C Humidity=51.27% Pressure=101631.98Pa
1611669306 Temp=12.77*C Humidity=51.49% Pressure=101634.57Pa
1611669366 Temp=12.72*C Humidity=51.82% Pressure=101627.57Pa
1611669426 Temp=12.71*C Humidity=52.00% Pressure=101623.23Pa
1611669487 Temp=12.67*C Humidity=52.17% Pressure=101612.71Pa
1611669546 Temp=12.65*C Humidity=52.10% Pressure=101608.62Pa
1611669606 Temp=12.66*C Humidity=51.86% Pressure=101603.98Pa
1611669666 Temp=12.67*C Humidity=51.78% Pressure=101602.97Pa
1611669726 Temp=12.69*C Humidity=51.68% Pressure=101598.46Pa
1611669786 Temp=12.71*C Humidity=51.57% Pressure=101597.56Pa
1611669846 Temp=12.74*C Humidity=51.50% Pressure=101594.80Pa
1611669906 Temp=12.78*C Humidity=51.45% Pressure=101585.05Pa
1611669966 Temp=12.79*C Humidity=51.41% Pressure=101573.57Pa
1611670026 Temp=12.82*C Humidity=51.36% Pressure=101569.84Pa
1611670086 Temp=12.84*C Humidity=51.30% Pressure=101565.15Pa
1611670146 Temp=12.86*C Humidity=51.27% Pressure=101566.52Pa
1611670206 Temp=12.89*C Humidity=51.25% Pressure=101563.31Pa
1611670267 Temp=12.88*C Humidity=51.27% Pressure=101560.88Pa
1611670327 Temp=12.89*C Humidity=51.21% Pressure=101556.47Pa
1611670386 Temp=12.90*C Humidity=51.17% Pressure=101558.81Pa
1611670446 Temp=12.91*C Humidity=51.15% Pressure=101551.24Pa
1611670506 Temp=12.93*C Humidity=51.10% Pressure=101548.97Pa
1611670567 Temp=12.94*C Humidity=51.03% Pressure=101550.00Pa
1611670626 Temp=12.96*C Humidity=51.00% Pressure=101548.01Pa
1611670686 Temp=12.97*C Humidity=50.99% Pressure=101546.50Pa
1611670746 Temp=12.98*C Humidity=51.00% Pressure=101539.66Pa
Showing last 40 lines from file [/srv/app/pi-web01/chroot/pi-ws01/var/backup.txt] (60 total lines).

Station Logs

File Name
sensor.txt
backup.txt
outage.log
outlier.log
rrd.log
pi-solar.log
Display Limit